createdAt,value
2019-01-11T00:03:04.053Z,3.40
2019-01-11T00:08:09.468Z,3.40
2019-01-11T00:13:14.465Z,3.40
2019-01-11T00:18:19.477Z,3.40
2019-01-11T00:23:24.573Z,3.50
2019-01-11T00:28:29.580Z,3.50
2019-01-11T00:33:34.580Z,3.40
2019-01-11T00:38:39.605Z,3.40
2019-01-11T00:43:44.645Z,3.40
2019-01-11T00:48:49.704Z,3.50
2019-01-11T00:53:54.725Z,3.50
2019-01-11T00:58:59.810Z,3.50
2019-01-11T01:04:04.821Z,3.50
2019-01-11T01:09:10.722Z,3.50
2019-01-11T01:14:15.746Z,3.50
2019-01-11T01:19:20.742Z,3.60
2019-01-11T01:24:26.059Z,3.50
2019-01-11T01:29:31.060Z,3.60
2019-01-11T01:34:36.056Z,3.60
2019-01-11T01:39:41.296Z,3.60
2019-01-11T01:44:46.313Z,3.60
2019-01-11T01:49:51.296Z,3.70
2019-01-11T01:54:56.305Z,3.70
2019-01-11T02:00:01.328Z,3.70
2019-01-11T02:05:07.768Z,3.80
2019-01-11T02:10:14.244Z,3.80
2019-01-11T02:15:19.281Z,3.80
2019-01-11T02:20:24.321Z,3.80
2019-01-11T02:25:29.307Z,3.80
2019-01-11T02:30:34.305Z,3.80
2019-01-11T02:35:39.312Z,3.80
2019-01-11T02:40:44.301Z,3.90
2019-01-11T02:45:49.309Z,3.90
2019-01-11T02:50:54.300Z,4.00
2019-01-11T02:55:59.316Z,4.00
2019-01-11T03:01:04.347Z,3.90
2019-01-11T03:06:09.364Z,4.00
2019-01-11T03:11:14.357Z,4.10
2019-01-11T03:16:19.355Z,4.10
2019-01-11T03:21:24.367Z,4.20
2019-01-11T03:26:29.377Z,4.30
2019-01-11T03:31:37.397Z,4.40
2019-01-11T03:36:42.383Z,4.60
2019-01-11T03:41:59.569Z,4.70
2019-01-11T03:47:06.392Z,4.80
2019-01-11T03:52:11.366Z,4.80
2019-01-11T03:57:16.360Z,4.90
2019-01-11T04:02:21.434Z,4.90
2019-01-11T04:07:26.370Z,5.00
2019-01-11T04:12:31.404Z,5.00
2019-01-11T04:17:36.419Z,4.90
2019-01-11T04:22:56.040Z,5.00
2019-01-11T04:28:01.053Z,5.10
2019-01-11T04:33:06.054Z,5.30
2019-01-11T04:38:11.250Z,5.30
2019-01-11T04:43:16.188Z,5.30
2019-01-11T04:48:21.189Z,5.40
2019-01-11T04:53:26.177Z,5.40
2019-01-11T04:58:31.173Z,5.50
2019-01-11T05:03:36.176Z,5.50
2019-01-11T05:08:41.161Z,5.50
2019-01-11T05:13:51.830Z,5.60
2019-01-11T05:18:56.826Z,5.60
2019-01-11T05:24:01.889Z,5.60
2019-01-11T05:29:06.897Z,5.60
2019-01-11T05:34:11.874Z,5.70
2019-01-11T05:39:16.861Z,5.90
2019-01-11T05:44:21.841Z,5.90
2019-01-11T05:49:26.848Z,6.00
2019-01-11T05:54:31.837Z,6.10
2019-01-11T05:59:36.817Z,6.00
2019-01-11T06:04:46.332Z,6.00
2019-01-11T06:09:51.334Z,6.00
2019-01-11T06:14:56.308Z,6.00
2019-01-11T06:20:01.293Z,6.00
2019-01-11T06:25:07.098Z,6.00
2019-01-11T06:30:13.919Z,6.10
2019-01-11T06:35:18.900Z,6.10
2019-01-11T06:40:23.905Z,6.20
2019-01-11T06:45:28.912Z,6.20
2019-01-11T06:50:36.569Z,6.20
2019-01-11T06:55:40.532Z,6.30
2019-01-11T07:00:45.513Z,6.30
2019-01-11T07:05:50.557Z,6.40
2019-01-11T07:10:55.553Z,6.50
2019-01-11T07:16:00.530Z,6.50
2019-01-11T07:21:05.736Z,6.60
2019-01-11T07:26:10.737Z,6.60
2019-01-11T07:31:18.392Z,6.60
2019-01-11T07:36:42.350Z,6.60
2019-01-11T07:41:47.349Z,6.60
2019-01-11T07:46:52.349Z,6.50
2019-01-11T07:51:57.405Z,6.50
2019-01-11T07:57:02.401Z,6.50
2019-01-11T08:02:07.398Z,6.50
2019-01-11T08:07:12.392Z,6.50
2019-01-11T08:12:17.369Z,6.60
2019-01-11T08:17:22.356Z,6.70
2019-01-11T08:22:38.138Z,6.70
2019-01-11T08:27:43.750Z,6.70
2019-01-11T08:32:48.732Z,6.70
2019-01-11T08:37:53.990Z,6.70
2019-01-11T08:42:58.985Z,6.80
2019-01-11T08:48:04.106Z,6.80
2019-01-11T08:53:09.391Z,6.70
2019-01-11T08:58:14.396Z,6.80
2019-01-11T09:03:19.403Z,6.80
2019-01-11T09:08:24.394Z,6.80
2019-01-11T09:13:30.423Z,6.80
2019-01-11T09:18:44.447Z,6.80
2019-01-11T09:23:49.453Z,6.80
2019-01-11T09:28:54.440Z,6.90
2019-01-11T09:33:59.438Z,6.90
2019-01-11T09:39:05.928Z,6.90
2019-01-11T09:44:10.940Z,6.90
2019-01-11T09:49:15.978Z,7.00
2019-01-11T09:54:23.094Z,7.10
2019-01-11T09:59:28.078Z,7.30
2019-01-11T10:04:36.344Z,7.40
2019-01-11T10:09:41.396Z,7.50
2019-01-11T10:14:46.414Z,7.60
2019-01-11T10:19:51.385Z,7.60
2019-01-11T10:24:56.373Z,7.50
2019-01-11T10:30:01.410Z,7.50
2019-01-11T10:35:06.780Z,7.40
2019-01-11T10:40:13.720Z,7.40
2019-01-11T10:45:21.219Z,7.40
2019-01-11T10:50:26.214Z,7.40
2019-01-11T10:55:31.204Z,7.30
2019-01-11T11:00:36.190Z,7.30
2019-01-11T11:05:41.632Z,7.30
2019-01-11T11:10:46.608Z,7.30
2019-01-11T11:15:51.601Z,7.30
2019-01-11T11:20:56.621Z,7.30
2019-01-11T11:26:01.668Z,7.40
2019-01-11T11:31:06.673Z,7.60
2019-01-11T11:36:11.684Z,7.60
2019-01-11T11:41:16.689Z,7.60
2019-01-11T11:46:21.795Z,7.60
2019-01-11T11:51:26.732Z,7.60
2019-01-11T11:56:31.771Z,7.70
2019-01-11T12:01:37.174Z,7.70
2019-01-11T12:06:42.177Z,7.70
2019-01-11T12:11:47.177Z,7.70
2019-01-11T12:16:52.184Z,7.70
2019-01-11T12:22:01.629Z,7.70
2019-01-11T12:27:03.783Z,7.80
2019-01-11T12:32:09.121Z,7.70
2019-01-11T12:37:14.247Z,7.60
2019-01-11T12:42:19.296Z,7.70
2019-01-11T12:47:24.288Z,7.70
2019-01-11T12:52:29.268Z,7.60
2019-01-11T12:57:34.487Z,7.60
2019-01-11T13:02:39.487Z,7.70
2019-01-11T13:07:44.586Z,7.70
2019-01-11T13:12:49.589Z,7.70
2019-01-11T13:17:54.777Z,7.60
2019-01-11T13:23:00.211Z,7.50
2019-01-11T13:28:05.618Z,7.50
2019-01-11T13:33:10.602Z,7.50
2019-01-11T13:38:15.743Z,7.50
2019-01-11T13:43:23.019Z,7.40
2019-01-11T13:48:28.008Z,7.40
2019-01-11T13:53:33.058Z,7.50
2019-01-11T13:58:38.078Z,7.50
2019-01-11T14:03:43.078Z,7.60
2019-01-11T14:08:48.062Z,7.60
2019-01-11T14:13:53.043Z,7.50
2019-01-11T14:18:58.027Z,7.50
2019-01-11T14:24:03.021Z,7.50
2019-01-11T14:29:08.071Z,7.50
2019-01-11T14:34:13.052Z,7.40
2019-01-11T14:39:18.228Z,7.40
2019-01-11T14:44:23.473Z,7.30
2019-01-11T14:49:28.812Z,7.20
2019-01-11T14:54:33.840Z,7.10
2019-01-11T14:59:39.102Z,7.20
2019-01-11T15:04:44.306Z,7.20
2019-01-11T15:09:49.280Z,7.20
2019-01-11T15:14:56.517Z,7.20
2019-01-11T15:20:01.483Z,7.10
2019-01-11T15:25:08.563Z,7.10
2019-01-11T15:30:22.625Z,7.20
2019-01-11T15:35:27.582Z,7.20
2019-01-11T15:40:36.497Z,7.10
2019-01-11T15:45:39.368Z,7.00
2019-01-11T15:51:09.427Z,6.90
2019-01-11T15:56:16.421Z,6.70
2019-01-11T16:01:21.387Z,6.60
2019-01-11T16:06:33.961Z,6.50
2019-01-11T16:11:43.639Z,6.50
2019-01-11T16:17:10.614Z,6.50
2019-01-11T16:22:15.626Z,6.50
2019-01-11T16:27:20.699Z,6.50
2019-01-11T16:32:25.655Z,6.40
2019-01-11T16:37:30.786Z,6.50
2019-01-11T16:42:38.847Z,6.50
2019-01-11T16:47:42.419Z,6.50
2019-01-11T16:52:47.375Z,6.40
2019-01-11T16:57:52.402Z,6.40
2019-01-11T17:02:57.371Z,6.40
2019-01-11T17:08:02.327Z,6.50
2019-01-11T17:13:07.308Z,6.60
2019-01-11T17:18:12.272Z,6.60
2019-01-11T17:23:17.323Z,6.70
2019-01-11T17:28:22.275Z,6.70
2019-01-11T17:33:27.230Z,6.70
2019-01-11T17:38:32.188Z,6.70
2019-01-11T17:43:37.138Z,6.70
2019-01-11T17:48:42.120Z,6.80
2019-01-11T17:53:47.074Z,6.70
2019-01-11T17:58:52.032Z,6.70
2019-01-11T18:03:56.990Z,6.70
2019-01-11T18:09:01.951Z,6.80
2019-01-11T18:14:06.901Z,6.80
2019-01-11T18:19:11.855Z,6.80
2019-01-11T18:24:16.860Z,6.80
2019-01-11T18:29:22.387Z,6.90
2019-01-11T18:34:27.420Z,6.90
2019-01-11T18:39:32.365Z,6.90
2019-01-11T18:44:37.485Z,6.90
2019-01-11T18:49:42.424Z,6.90
2019-01-11T18:54:47.392Z,6.90
2019-01-11T18:59:52.395Z,6.90
2019-01-11T19:04:57.377Z,7.00
2019-01-11T19:10:02.336Z,7.00
2019-01-11T19:15:11.251Z,7.00
2019-01-11T19:20:27.383Z,7.00
2019-01-11T19:25:32.347Z,7.10
2019-01-11T19:30:37.329Z,7.10
2019-01-11T19:35:42.369Z,7.10
2019-01-11T19:40:47.566Z,7.00
2019-01-11T19:45:52.526Z,6.90
2019-01-11T19:50:59.158Z,6.80
2019-01-11T19:56:04.566Z,6.80
2019-01-11T20:01:09.946Z,6.90
2019-01-11T20:06:15.194Z,6.90
2019-01-11T20:11:22.044Z,6.90
2019-01-11T20:16:27.239Z,6.90
2019-01-11T20:21:32.196Z,6.90
2019-01-11T20:26:37.339Z,6.90
2019-01-11T20:31:42.291Z,7.00
2019-01-11T20:37:10.863Z,7.00
2019-01-11T20:42:15.836Z,7.00
2019-01-11T20:47:20.885Z,7.00
2019-01-11T20:52:25.983Z,7.10
2019-01-11T20:57:32.387Z,7.00
2019-01-11T21:02:37.681Z,6.90
2019-01-11T21:07:42.859Z,6.80
2019-01-11T21:12:47.865Z,6.80
2019-01-11T21:17:53.180Z,6.80
2019-01-11T21:22:58.167Z,6.80
2019-01-11T21:28:03.445Z,6.80
2019-01-11T21:33:08.611Z,6.80
2019-01-11T21:38:13.569Z,6.80
2019-01-11T21:43:18.534Z,6.80
2019-01-11T21:48:23.483Z,6.70
2019-01-11T21:53:28.439Z,6.70
2019-01-11T21:58:33.788Z,6.70
2019-01-11T22:03:38.743Z,6.80
2019-01-11T22:08:43.699Z,6.80
2019-01-11T22:13:48.673Z,6.80
2019-01-11T22:18:53.609Z,6.70
2019-01-11T22:24:03.127Z,6.70
2019-01-11T22:29:05.460Z,6.60
2019-01-11T22:34:10.479Z,6.70
2019-01-11T22:39:15.426Z,6.70
2019-01-11T22:44:20.391Z,6.60
2019-01-11T22:49:25.364Z,6.60
2019-01-11T22:54:30.310Z,6.50
2019-01-11T22:59:35.259Z,6.50
2019-01-11T23:04:40.211Z,6.40
2019-01-11T23:10:12.595Z,6.50
2019-01-11T23:15:23.099Z,6.50
2019-01-11T23:20:28.064Z,6.50
2019-01-11T23:25:33.021Z,6.50
2019-01-11T23:30:37.985Z,6.40
2019-01-11T23:35:42.983Z,6.40
2019-01-11T23:40:47.936Z,6.40
2019-01-11T23:45:52.879Z,6.40
2019-01-11T23:50:59.681Z,6.40
2019-01-11T23:56:04.626Z,6.30
